Time;durP1;ratioP1;P1;durP2;ratioP2;P2;SDS_P1;SDS_P2;PMS_P1;PMS_P2;Temp;Humidity;BMP_temperature;BMP_pressure;BME280_temperature;BME280_humidity;BME280_pressure;Samples;Min_cycle;Max_cycle;Signal;HPM_P1;HPM_P2
2021/05/23 00:00:59;;;;;;;7.70;3.90;;;;;;;14.90;51.43;94042.03;5009421;28;20036;-74
2021/05/23 00:03:24;;;;;;;11.68;5.85;;;;;;;14.87;52.21;94034.66;5009687;28;20490;-74
2021/05/23 00:05:50;;;;;;;8.88;3.92;;;;;;;14.89;53.16;94028.94;4991917;28;20033;-74
2021/05/23 00:08:18;;;;;;;12.02;4.05;;;;;;;14.82;52.44;94038.34;4991914;28;20490;-74
2021/05/23 00:10:58;;;;;;;10.85;3.00;;;;;;;14.83;52.27;94036.44;5009255;28;20400;-74
2021/05/23 00:13:27;;;;;;;7.30;3.17;;;;;;;14.82;53.38;94045.63;4995569;28;20026;-74
2021/05/23 00:15:56;;;;;;;5.22;3.15;;;;;;;14.77;52.70;94035.88;5012554;28;20093;-74
2021/05/23 00:18:23;;;;;;;7.63;3.20;;;;;;;14.74;53.02;94043.81;5013239;28;20046;-74
2021/05/23 00:20:48;;;;;;;7.28;3.00;;;;;;;14.70;52.37;94035.66;4995269;28;20037;-74
2021/05/23 00:23:15;;;;;;;5.00;3.08;;;;;;;14.66;52.51;94040.13;4994712;28;20026;-74
2021/05/23 00:25:41;;;;;;;7.97;3.28;;;;;;;14.68;53.32;94037.13;5013069;28;20034;-74
2021/05/23 00:28:08;;;;;;;6.07;3.70;;;;;;;14.64;54.09;94037.78;5012928;28;20080;-75
2021/05/23 00:30:34;;;;;;;7.43;2.83;;;;;;;14.59;52.92;94038.00;5009491;28;20021;-74
2021/05/23 00:33:00;;;;;;;5.07;3.13;;;;;;;14.54;52.66;94043.53;4995125;28;20048;-73
2021/05/23 00:35:25;;;;;;;4.32;3.00;;;;;;;14.50;53.55;94042.63;4995252;28;20022;-73
2021/05/23 00:37:51;;;;;;;6.97;3.30;;;;;;;14.48;53.84;94039.50;5012444;28;20034;-73
2021/05/23 00:40:17;;;;;;;6.03;3.20;;;;;;;14.40;54.32;94041.16;5012719;28;20092;-73
2021/05/23 00:42:42;;;;;;;4.70;3.13;;;;;;;14.35;53.94;94041.38;4995137;28;20044;-73
2021/05/23 00:45:12;;;;;;;6.65;3.22;;;;;;;14.28;54.62;94035.78;4994894;28;20500;-73
2021/05/23 00:47:38;;;;;;;10.75;3.33;;;;;;;14.22;55.29;94040.56;5012554;28;20486;-73
2021/05/23 00:50:10;;;;;;;8.32;3.22;;;;;;;14.14;55.59;94046.78;4994825;28;20033;-73
2021/05/23 00:52:36;;;;;;;7.00;3.47;;;;;;;14.11;55.24;94044.78;5012644;28;20056;-73
2021/05/23 00:55:02;;;;;;;5.65;3.47;;;;;;;14.10;55.97;94053.16;4994652;28;20481;-73
2021/05/23 00:57:29;;;;;;;6.15;3.08;;;;;;;14.08;56.15;94052.69;5012422;28;20167;-73
2021/05/23 00:59:54;;;;;;;7.82;3.20;;;;;;;14.06;55.47;94058.38;4994822;28;20018;-73
2021/05/23 01:02:40;;;;;;;4.55;3.20;;;;;;;13.88;55.23;94056.97;4994799;28;20028;-73
2021/05/23 01:05:07;;;;;;;5.18;3.25;;;;;;;13.89;56.36;94058.53;5011972;28;20052;-73
2021/05/23 01:07:33;;;;;;;6.38;2.90;;;;;;;13.81;55.33;94044.88;4994753;28;20021;-74
2021/05/23 01:10:06;;;;;;;7.55;3.17;;;;;;;13.77;55.80;94048.56;4994371;28;20532;-74
2021/05/23 01:12:47;;;;;;;5.82;3.33;;;;;;;13.81;55.26;94055.59;4994426;28;20025;-73
2021/05/23 01:15:12;;;;;;;6.93;3.05;;;;;;;13.79;55.49;94057.81;5011863;28;20463;-73
2021/05/23 01:17:44;;;;;;;4.53;2.83;;;;;;;13.76;55.81;94047.78;5011769;28;20046;-73
2021/05/23 01:20:12;;;;;;;4.72;2.95;;;;;;;13.76;56.28;94050.47;5011682;28;20415;-74
2021/05/23 01:23:06;;;;;;;11.80;4.07;;;;;;;13.71;56.22;94050.63;4993536;28;20564;-74
2021/05/23 01:25:32;;;;;;;8.90;3.83;;;;;;;13.71;56.06;94041.81;5004103;28;20477;-73
2021/05/23 01:27:59;;;;;;;4.80;3.35;;;;;;;13.72;56.22;94036.16;4995816;28;20104;-73
2021/05/23 01:30:31;;;;;;;4.90;3.13;;;;;;;13.66;56.52;94032.09;4993901;28;20026;-73
2021/05/23 01:33:02;;;;;;;5.95;3.28;;;;;;;13.62;56.68;94031.19;4994216;28;20033;-73
2021/05/23 01:35:34;;;;;;;6.05;3.88;;;;;;;13.61;57.05;94041.09;4994118;28;20060;-73
2021/05/23 01:38:00;;;;;;;8.35;3.13;;;;;;;13.60;56.58;94044.13;4994074;28;20068;-73
2021/05/23 01:40:29;;;;;;;6.78;2.83;;;;;;;13.61;55.99;94045.69;4997403;28;20056;-73
2021/05/23 01:42:55;;;;;;;6.68;3.45;;;;;;;13.55;55.73;94041.63;5011573;28;20040;-73
2021/05/23 01:45:21;;;;;;;5.70;3.15;;;;;;;13.53;55.88;94044.63;4993547;28;20477;-73
2021/05/23 01:47:48;;;;;;;9.95;3.40;;;;;;;13.52;56.12;94043.06;5011370;28;20145;-73
2021/05/23 01:50:14;;;;;;;9.25;2.97;;;;;;;13.55;56.29;94047.75;5011420;28;20037;-72
2021/05/23 01:52:46;;;;;;;9.85;3.33;;;;;;;13.55;56.44;94047.00;5011176;28;20401;-72
2021/05/23 01:55:13;;;;;;;3.65;2.53;;;;;;;13.56;56.72;94054.69;5011207;28;20069;-72
2021/05/23 01:57:38;;;;;;;4.40;3.40;;;;;;;13.53;56.29;94044.63;4993554;28;20108;-73
2021/05/23 02:00:04;;;;;;;7.45;3.03;;;;;;;13.51;56.03;94048.75;4993566;28;20026;-73
2021/05/23 02:02:30;;;;;;;8.93;3.30;;;;;;;13.49;56.40;94049.06;5009630;28;20112;-73
2021/05/23 02:04:55;;;;;;;6.65;3.38;;;;;;;13.47;57.14;94050.50;5011240;28;20109;-72
2021/05/23 02:07:20;;;;;;;6.18;3.00;;;;;;;13.43;57.45;94061.88;5011001;28;20022;-72
2021/05/23 02:09:46;;;;;;;4.82;3.28;;;;;;;13.41;57.70;94052.59;5010941;28;20026;-72
2021/05/23 02:12:12;;;;;;;6.53;3.85;;;;;;;13.37;57.93;94065.88;5011226;28;20021;-73
2021/05/23 02:14:38;;;;;;;7.90;3.05;;;;;;;13.33;57.77;94062.28;5010402;28;20021;-72
2021/05/23 02:17:03;;;;;;;5.47;3.70;;;;;;;13.27;57.82;94066.22;4992978;28;20041;-72
2021/05/23 02:19:28;;;;;;;7.70;2.83;;;;;;;13.25;57.83;94060.41;5010900;28;20065;-72
2021/05/23 02:21:57;;;;;;;5.32;3.63;;;;;;;13.23;57.79;94051.91;4993384;28;20104;-73
2021/05/23 02:24:22;;;;;;;7.90;3.30;;;;;;;13.21;58.27;94070.19;4993099;28;20026;-73
2021/05/23 02:26:48;;;;;;;7.55;3.42;;;;;;;13.17;57.99;94054.00;5002531;28;20112;-73
2021/05/23 02:29:15;;;;;;;5.75;2.85;;;;;;;13.16;57.94;94056.97;5010541;28;20026;-73
2021/05/23 02:31:40;;;;;;;7.57;3.20;;;;;;;13.14;58.33;94059.97;5010444;28;20516;-74
2021/05/23 02:34:06;;;;;;;8.48;2.83;;;;;;;13.01;58.73;94061.78;5010397;28;20057;-73
2021/05/23 02:36:31;;;;;;;9.18;3.25;;;;;;;13.00;58.78;94065.56;4992772;28;20040;-73
2021/05/23 02:38:57;;;;;;;4.47;2.90;;;;;;;12.91;59.13;94069.41;5010508;28;20026;-74
2021/05/23 02:41:22;;;;;;;6.53;3.20;;;;;;;12.91;58.88;94061.38;5010605;28;20417;-73
2021/05/23 02:43:48;;;;;;;5.43;2.67;;;;;;;12.93;59.05;94069.88;4992476;28;20070;-73
2021/05/23 02:46:13;;;;;;;10.77;3.35;;;;;;;12.92;58.97;94069.06;5010534;28;20025;-73
2021/05/23 02:48:39;;;;;;;6.70;2.78;;;;;;;12.88;58.96;94057.44;4992698;28;20568;-73
2021/05/23 02:51:04;;;;;;;7.10;3.03;;;;;;;12.93;59.10;94064.50;4992854;28;20026;-73
2021/05/23 02:53:30;;;;;;;7.38;2.85;;;;;;;12.92;59.08;94066.38;5008965;28;20485;-73
2021/05/23 02:55:56;;;;;;;4.93;3.30;;;;;;;12.89;59.38;94074.28;5010160;28;20025;-73
2021/05/23 02:58:21;;;;;;;4.70;3.05;;;;;;;12.87;59.42;94061.22;4992360;28;20025;-73
2021/05/23 03:00:47;;;;;;;8.57;3.22;;;;;;;12.84;59.66;94069.88;5009977;28;20112;-73
2021/05/23 03:03:15;;;;;;;9.30;3.45;;;;;;;12.85;59.96;94074.91;5010092;28;20034;-74
2021/05/23 03:05:41;;;;;;;8.82;3.03;;;;;;;12.80;60.29;94066.28;5010047;28;20033;-73
2021/05/23 03:08:08;;;;;;;9.25;3.33;;;;;;;12.78;59.98;94068.50;5010106;28;20041;-73
2021/05/23 03:10:39;;;;;;;4.30;2.60;;;;;;;12.81;59.70;94071.31;5009966;28;20029;-73
2021/05/23 03:13:06;;;;;;;4.97;2.57;;;;;;;12.80;59.96;94071.63;5009890;28;20033;-73
2021/05/23 03:15:33;;;;;;;7.93;3.05;;;;;;;12.78;60.20;94081.88;4992468;28;20056;-73
2021/05/23 03:17:58;;;;;;;9.40;2.97;;;;;;;12.78;60.44;94076.53;4995137;28;20045;-73
2021/05/23 03:20:26;;;;;;;4.75;3.03;;;;;;;12.77;60.41;94077.63;5015510;28;20022;-73
2021/05/23 03:22:54;;;;;;;5.82;3.28;;;;;;;12.78;60.14;94082.69;4992064;28;20032;-73
2021/05/23 03:25:21;;;;;;;4.63;2.95;;;;;;;12.82;59.76;94074.78;5009854;28;20529;-73
2021/05/23 03:27:46;;;;;;;8.07;2.80;;;;;;;12.84;59.34;94084.06;5009620;28;20026;-73
2021/05/23 03:30:16;;;;;;;5.43;2.70;;;;;;;12.87;59.67;94077.28;5009883;28;20034;-73
2021/05/23 03:32:42;;;;;;;7.05;2.95;;;;;;;12.92;59.80;94084.34;5010026;28;20061;-73
2021/05/23 03:35:09;;;;;;;6.20;3.05;;;;;;;12.97;59.88;94082.28;5009717;28;20037;-73
2021/05/23 03:37:34;;;;;;;7.00;2.70;;;;;;;13.03;59.97;94089.00;4992437;28;20453;-73
2021/05/23 03:40:00;;;;;;;4.50;2.42;;;;;;;13.03;59.07;94089.00;4992446;28;20034;-73
2021/05/23 03:42:26;;;;;;;7.18;2.58;;;;;;;13.13;58.12;94087.09;5009789;28;20065;-73
2021/05/23 03:44:51;;;;;;;5.55;2.47;;;;;;;13.23;58.43;94089.38;4995111;28;20382;-73
2021/05/23 03:47:17;;;;;;;12.68;3.85;;;;;;;13.31;58.73;94099.28;5031821;28;20100;-73
2021/05/23 03:49:42;;;;;;;4.32;2.95;;;;;;;13.30;59.41;94094.25;5015579;28;20081;-73
2021/05/23 03:52:11;;;;;;;11.60;3.35;;;;;;;13.35;60.48;94110.91;5017130;28;20080;-73
2021/05/23 03:54:37;;;;;;;8.38;2.75;;;;;;;13.39;59.76;94117.19;5013387;28;20026;-74
2021/05/23 03:57:04;;;;;;;3.40;2.63;;;;;;;13.46;59.25;94110.53;5013415;28;20477;-73
2021/05/23 03:59:29;;;;;;;8.32;3.00;;;;;;;13.54;59.44;94107.81;4994271;28;20034;-73
2021/05/23 04:01:54;;;;;;;6.43;2.97;;;;;;;13.62;58.89;94106.19;4995910;28;20017;-73
2021/05/23 04:04:22;;;;;;;7.53;3.10;;;;;;;13.71;58.36;94104.22;4995596;28;20026;-73
2021/05/23 04:06:49;;;;;;;11.23;2.55;;;;;;;13.78;58.15;94099.13;5013541;28;20053;-73
2021/05/23 04:09:15;;;;;;;5.93;2.65;;;;;;;13.89;57.83;94104.09;4995313;28;20116;-73
2021/05/23 04:11:43;;;;;;;8.70;3.03;;;;;;;13.98;56.62;94112.84;4995387;28;20022;-73
2021/05/23 04:14:10;;;;;;;12.20;3.50;;;;;;;13.99;59.69;94104.47;5013248;28;20165;-73
2021/05/23 04:16:35;;;;;;;15.35;4.53;;;;;;;13.88;60.77;94126.63;5012872;28;20470;-74
2021/05/23 04:19:01;;;;;;;11.50;3.95;;;;;;;13.90;60.55;94122.53;5003506;28;20159;-73
2021/05/23 04:21:26;;;;;;;4.35;3.58;;;;;;;13.87;58.54;94119.72;5032832;28;20025;-74
2021/05/23 04:23:51;;;;;;;7.78;3.17;;;;;;;13.88;58.09;94119.41;5020794;28;20025;-74
2021/05/23 04:26:17;;;;;;;12.13;4.18;;;;;;;13.90;58.85;94121.72;4995214;28;20029;-74
2021/05/23 04:28:42;;;;;;;5.97;3.72;;;;;;;13.93;58.53;94121.88;5012707;28;20032;-73
2021/05/23 04:31:08;;;;;;;12.13;3.85;;;;;;;13.97;58.42;94132.72;5012952;28;20026;-74
2021/05/23 04:33:33;;;;;;;9.23;4.18;;;;;;;13.97;58.54;94130.03;5012687;28;20022;-73
2021/05/23 04:35:58;;;;;;;9.45;3.90;;;;;;;14.01;58.38;94128.28;4995463;28;20037;-73
2021/05/23 04:38:24;;;;;;;5.60;4.45;;;;;;;14.02;58.20;94140.53;4994961;28;20030;-73
2021/05/23 04:40:49;;;;;;;10.00;4.50;;;;;;;13.99;57.12;94131.28;4995117;28;20481;-73
2021/05/23 04:43:15;;;;;;;7.32;3.80;;;;;;;14.02;57.16;94133.31;4995112;28;20489;-73
2021/05/23 04:45:40;;;;;;;7.20;4.38;;;;;;;14.09;57.60;94140.81;4994879;28;20026;-73
2021/05/23 04:48:07;;;;;;;11.43;4.32;;;;;;;14.07;57.41;94134.22;5012721;28;20026;-73
2021/05/23 04:50:34;;;;;;;10.32;4.78;;;;;;;14.15;57.37;94141.41;5012365;28;20022;-73
2021/05/23 04:53:00;;;;;;;6.95;4.47;;;;;;;14.22;57.54;94139.75;5010886;28;20033;-73
2021/05/23 04:55:25;;;;;;;7.88;4.53;;;;;;;14.30;57.58;94127.38;5012310;28;20033;-72
2021/05/23 04:57:51;;;;;;;26.70;5.65;;;;;;;14.41;57.27;94125.06;5012038;28;20405;-73
2021/05/23 05:00:17;;;;;;;11.18;4.70;;;;;;;14.53;57.08;94127.00;5012598;28;20101;-73
2021/05/23 05:02:43;;;;;;;6.88;4.97;;;;;;;14.63;56.55;94124.75;4993304;28;20546;-73
2021/05/23 05:05:10;;;;;;;7.20;4.90;;;;;;;14.80;55.55;94125.66;5012192;28;20113;-73
2021/05/23 05:07:36;;;;;;;11.05;5.25;;;;;;;14.90;54.97;94119.88;5011564;28;20498;-73
2021/05/23 05:10:04;;;;;;;13.07;6.60;;;;;;;14.97;54.94;94127.38;4994618;28;20108;-73
2021/05/23 05:12:29;;;;;;;16.20;5.88;;;;;;;14.92;56.25;94128.38;4995530;28;20511;-73
2021/05/23 05:14:55;;;;;;;8.48;5.97;;;;;;;14.96;56.48;94133.84;4994531;28;20126;-74
2021/05/23 05:17:20;;;;;;;11.70;5.63;;;;;;;14.99;56.17;94139.31;5011898;28;20113;-73
2021/05/23 05:19:46;;;;;;;11.63;5.97;;;;;;;15.04;56.41;94143.69;4994363;28;20512;-73
2021/05/23 05:22:11;;;;;;;13.82;7.32;;;;;;;14.98;56.86;94142.34;5012225;28;20022;-73
2021/05/23 05:24:36;;;;;;;11.25;6.53;;;;;;;15.01;57.05;94145.13;5012029;28;20030;-73
2021/05/23 05:27:02;;;;;;;9.55;6.93;;;;;;;15.11;56.78;94135.09;4994440;28;20025;-73
2021/05/23 05:29:27;;;;;;;22.38;5.90;;;;;;;15.25;56.13;94132.88;5011978;28;20049;-73
2021/05/23 05:31:54;;;;;;;11.93;5.68;;;;;;;15.36;55.13;94128.59;5012071;28;20033;-73
2021/05/23 05:34:20;;;;;;;13.55;5.38;;;;;;;15.49;53.47;94131.28;5009862;28;20040;-73
2021/05/23 05:36:45;;;;;;;8.18;5.55;;;;;;;15.58;53.26;94121.22;5011370;28;20069;-73
2021/05/23 05:39:11;;;;;;;25.48;7.70;;;;;;;15.70;52.67;94134.63;5011568;28;20030;-74
2021/05/23 05:41:37;;;;;;;14.95;5.95;;;;;;;15.72;52.59;94121.66;5011589;28;20568;-74
2021/05/23 05:44:02;;;;;;;13.27;5.70;;;;;;;15.84;52.72;94126.25;4994067;28;20034;-74
2021/05/23 05:46:28;;;;;;;17.92;5.75;;;;;;;15.95;51.99;94134.59;5010121;28;20097;-73
2021/05/23 05:48:53;;;;;;;16.85;5.68;;;;;;;16.02;53.37;94127.53;5011159;28;20033;-73
2021/05/23 05:51:19;;;;;;;13.63;6.10;;;;;;;16.06;53.09;94130.34;5011487;28;20512;-74
2021/05/23 05:53:44;;;;;;;12.55;6.75;;;;;;;16.03;53.56;94147.13;5011239;28;20014;-73
2021/05/23 05:56:10;;;;;;;12.70;7.05;;;;;;;16.08;54.38;94149.59;5011078;28;20021;-74
2021/05/23 05:58:35;;;;;;;14.02;6.32;;;;;;;16.14;53.50;94148.22;4993820;28;20022;-74
2021/05/23 06:01:01;;;;;;;15.77;6.10;;;;;;;16.27;53.00;94150.88;4993548;28;20061;-74
2021/05/23 06:03:26;;;;;;;13.07;6.13;;;;;;;16.40;52.20;94155.06;5010986;28;20040;-74
2021/05/23 06:05:52;;;;;;;9.77;6.25;;;;;;;16.49;51.58;94157.63;5010850;28;20393;-75
2021/05/23 06:08:17;;;;;;;11.73;6.10;;;;;;;16.64;50.95;94149.59;4993026;28;20029;-74
2021/05/23 06:10:42;;;;;;;11.70;5.93;;;;;;;16.60;52.15;94156.78;5010266;28;20104;-74
2021/05/23 06:13:08;;;;;;;11.20;5.43;;;;;;;16.73;50.74;94159.41;5010614;28;20032;-75
2021/05/23 06:15:34;;;;;;;12.27;5.07;;;;;;;16.85;49.17;94156.69;5010646;28;20450;-74
2021/05/23 06:18:00;;;;;;;14.52;6.72;;;;;;;16.96;49.84;94168.53;4992819;28;20050;-74
2021/05/23 06:20:25;;;;;;;10.07;5.40;;;;;;;16.96;50.42;94170.44;5010297;28;20053;-74
2021/05/23 06:22:51;;;;;;;13.13;6.45;;;;;;;16.97;50.67;94172.75;4993040;28;20058;-73
2021/05/23 06:25:16;;;;;;;13.73;5.60;;;;;;;17.04;50.31;94169.50;4992755;28;20410;-74
2021/05/23 06:27:42;;;;;;;11.15;5.40;;;;;;;17.12;50.35;94171.25;4992697;28;20080;-74
2021/05/23 06:30:08;;;;;;;12.18;5.18;;;;;;;17.18;49.25;94156.38;4992417;28;20072;-75
2021/05/23 06:32:34;;;;;;;9.00;4.53;;;;;;;17.32;49.07;94172.13;5008635;28;20453;-75
2021/05/23 06:34:59;;;;;;;8.60;4.53;;;;;;;17.45;48.30;94187.06;4992441;28;20022;-73
2021/05/23 06:37:25;;;;;;;11.05;6.75;;;;;;;17.45;48.27;94180.88;5009969;28;20482;-73
2021/05/23 06:39:50;;;;;;;21.65;7.18;;;;;;;17.48;48.35;94184.78;4992629;28;20057;-73
2021/05/23 06:42:16;;;;;;;12.75;5.88;;;;;;;17.58;48.13;94186.97;5010106;28;20037;-75
2021/05/23 06:44:42;;;;;;;10.95;4.95;;;;;;;17.76;47.23;94177.38;4992875;28;20037;-73
2021/05/23 06:47:07;;;;;;;9.23;4.53;;;;;;;17.97;46.55;94179.81;4992169;28;20029;-73
2021/05/23 06:49:33;;;;;;;8.02;4.40;;;;;;;18.04;46.14;94165.69;5010062;28;20165;-74
2021/05/23 06:51:59;;;;;;;11.05;3.83;;;;;;;18.17;46.07;94171.72;5009657;28;20041;-73
2021/05/23 06:54:25;;;;;;;7.47;4.30;;;;;;;18.27;45.00;94173.09;5010077;28;20117;-73
2021/05/23 06:56:51;;;;;;;9.85;4.53;;;;;;;18.25;44.89;94170.75;4992017;28;20030;-73
2021/05/23 06:59:16;;;;;;;13.52;4.43;;;;;;;18.27;45.61;94171.19;5010205;28;20176;-73
2021/05/23 07:01:41;;;;;;;16.88;4.40;;;;;;;18.38;45.55;94166.03;4992405;28;20395;-73
2021/05/23 07:04:07;;;;;;;7.20;4.22;;;;;;;18.42;45.42;94162.25;5009524;28;20033;-73
2021/05/23 07:06:32;;;;;;;8.20;4.38;;;;;;;18.53;45.64;94157.06;5009703;28;20409;-73
2021/05/23 07:08:58;;;;;;;9.75;4.43;;;;;;;18.68;46.43;94157.31;4999710;28;20026;-73
2021/05/23 07:11:23;;;;;;;7.82;4.82;;;;;;;18.86;45.53;94157.69;4995167;28;20036;-73
2021/05/23 07:13:48;;;;;;;23.73;4.68;;;;;;;19.03;45.54;94162.63;5009395;28;20511;-72
2021/05/23 07:16:14;;;;;;;12.70;5.70;;;;;;;19.20;45.30;94151.34;5010099;28;20552;-72
2021/05/23 07:18:39;;;;;;;8.15;4.47;;;;;;;19.35;45.36;94148.88;5009620;28;20054;-72
2021/05/23 07:21:05;;;;;;;9.32;4.20;;;;;;;19.43;44.24;94142.44;4999469;28;20065;-74
2021/05/23 07:23:31;;;;;;;8.63;4.25;;;;;;;19.59;43.55;94140.38;4992215;28;20029;-73
2021/05/23 07:25:56;;;;;;;9.23;4.03;;;;;;;19.74;43.21;94140.63;4991939;28;20154;-73
2021/05/23 07:28:22;;;;;;;7.10;3.53;;;;;;;19.89;42.53;94147.03;5009961;28;20489;-73
2021/05/23 07:30:47;;;;;;;7.65;2.85;;;;;;;20.01;42.44;94152.22;5009843;28;20034;-74
2021/05/23 07:33:15;;;;;;;11.27;2.90;;;;;;;20.03;40.73;94152.66;4992234;28;20482;-73
2021/05/23 07:35:41;;;;;;;4.88;2.97;;;;;;;20.11;40.79;94157.00;5008431;28;20053;-73
2021/05/23 07:38:07;;;;;;;4.50;2.83;;;;;;;20.19;41.30;94149.75;5009378;28;20030;-74
2021/05/23 07:40:32;;;;;;;8.30;2.88;;;;;;;20.28;41.08;94150.25;4991957;28;20549;-73
2021/05/23 07:42:58;;;;;;;5.40;3.38;;;;;;;20.32;41.62;94147.59;4991787;28;20264;-73
2021/05/23 07:45:24;;;;;;;4.65;3.00;;;;;;;20.32;41.33;94147.59;4991782;28;20117;-73
2021/05/23 07:47:49;;;;;;;9.88;3.40;;;;;;;20.44;41.36;94142.72;5009449;28;20104;-73
2021/05/23 07:50:15;;;;;;;14.38;4.05;;;;;;;20.55;41.10;94139.34;5009313;28;20038;-73
2021/05/23 07:52:40;;;;;;;10.98;3.20;;;;;;;20.52;40.42;94140.13;4991829;28;20112;-73
2021/05/23 07:55:07;;;;;;;9.00;3.53;;;;;;;20.61;40.77;94137.91;5008141;28;20030;-74
2021/05/23 07:57:33;;;;;;;13.23;3.15;;;;;;;20.71;40.54;94147.31;4987889;28;20021;-74
2021/05/23 07:59:58;;;;;;;4.80;2.80;;;;;;;20.75;39.97;94151.59;5005501;28;20092;-73
2021/05/23 08:02:23;;;;;;;7.43;2.60;;;;;;;20.78;39.47;94139.25;4991555;28;20121;-74
2021/05/23 08:04:49;;;;;;;4.88;2.72;;;;;;;20.74;39.72;94146.56;4994246;28;20029;-73
2021/05/23 08:07:14;;;;;;;6.88;2.60;;;;;;;20.72;39.59;94148.84;5009088;28;20346;-74
2021/05/23 08:09:40;;;;;;;7.05;2.50;;;;;;;20.79;39.47;94149.72;5009507;28;20473;-73
2021/05/23 08:12:06;;;;;;;6.10;2.53;;;;;;;20.84;38.73;94143.19;4991804;28;20026;-73
2021/05/23 08:14:31;;;;;;;6.53;2.67;;;;;;;20.79;38.61;94133.47;4991805;28;20519;-73
2021/05/23 08:16:57;;;;;;;6.28;2.30;;;;;;;20.83;38.14;94137.00;4991634;28;20038;-73
2021/05/23 08:19:22;;;;;;;5.68;2.58;;;;;;;20.87;38.64;94128.91;4991645;28;20115;-74
2021/05/23 08:21:48;;;;;;;5.38;2.38;;;;;;;20.82;38.68;94129.22;5009252;28;20026;-73
2021/05/23 08:24:14;;;;;;;3.55;2.42;;;;;;;20.80;39.21;94124.19;4991684;28;20029;-74
2021/05/23 08:26:39;;;;;;;8.45;3.47;;;;;;;20.81;40.01;94123.03;5008572;28;20026;-73
2021/05/23 08:29:05;;;;;;;7.63;3.30;;;;;;;20.92;40.70;94120.44;5009215;28;20113;-73
2021/05/23 08:31:32;;;;;;;4.72;3.30;;;;;;;20.94;39.98;94118.13;5009341;28;20037;-73
2021/05/23 08:33:57;;;;;;;5.07;3.10;;;;;;;21.07;40.19;94126.00;4994763;28;20442;-73
2021/05/23 08:36:22;;;;;;;4.55;2.70;;;;;;;21.16;40.43;94112.91;4995193;28;20032;-73
2021/05/23 08:38:48;;;;;;;6.57;2.95;;;;;;;21.29;39.55;94124.25;5013066;28;20034;-73
2021/05/23 08:41:15;;;;;;;6.32;2.70;;;;;;;21.35;38.78;94128.16;5012774;28;20033;-73
2021/05/23 08:43:41;;;;;;;8.00;2.20;;;;;;;21.42;38.62;94131.75;4994574;28;20025;-73
2021/05/23 08:46:06;;;;;;;8.35;3.05;;;;;;;21.49;38.86;94132.97;4994573;28;20160;-73
2021/05/23 08:48:33;;;;;;;10.88;2.63;;;;;;;21.58;38.83;94125.28;5012185;28;20123;-74
2021/05/23 08:50:58;;;;;;;3.42;2.25;;;;;;;21.59;38.25;94124.13;4998738;28;20033;-73
2021/05/23 08:53:25;;;;;;;13.43;2.60;;;;;;;21.61;38.12;94125.28;5012263;28;21072;-73
2021/05/23 08:55:51;;;;;;;8.80;2.65;;;;;;;21.62;37.47;94128.81;5012308;28;20117;-73
2021/05/23 08:58:16;;;;;;;5.18;2.72;;;;;;;21.76;38.50;94128.13;5012140;28;20109;-74
2021/05/23 09:00:42;;;;;;;9.35;2.55;;;;;;;21.89;38.21;94117.75;5012062;28;20050;-74
2021/05/23 09:03:11;;;;;;;4.85;2.70;;;;;;;22.04;38.45;94122.06;4994968;28;20498;-80
2021/05/23 09:05:39;;;;;;;5.22;2.38;;;;;;;22.15;38.09;94120.22;4992296;28;20045;-74
2021/05/23 09:08:14;;;;;;;8.10;2.78;;;;;;;22.31;37.32;94119.94;4994600;28;20110;-74
2021/05/23 09:10:41;;;;;;;10.73;2.47;;;;;;;22.44;38.92;94114.94;5011856;28;20036;-74
2021/05/23 09:13:07;;;;;;;4.10;2.67;;;;;;;22.60;37.98;94120.81;4994060;28;20386;-73
2021/05/23 09:15:33;;;;;;;5.85;2.83;;;;;;;22.74;37.57;94127.44;4993837;28;20053;-73
2021/05/23 09:18:01;;;;;;;12.00;3.05;;;;;;;22.84;36.61;94115.84;5009773;28;20042;-74
2021/05/23 09:20:26;;;;;;;9.43;2.47;;;;;;;22.94;35.49;94111.56;5011951;28;20034;-75
2021/05/23 09:22:53;;;;;;;5.40;2.58;;;;;;;22.96;35.30;94114.66;5011967;28;20034;-75
2021/05/23 09:25:32;;;;;;;6.00;3.00;;;;;;;22.99;36.01;94114.69;5012245;28;20033;-74
2021/05/23 09:27:58;;;;;;;7.10;2.78;;;;;;;23.04;35.52;94116.28;4993969;28;20029;-74
2021/05/23 09:30:26;;;;;;;7.55;2.70;;;;;;;22.95;34.79;94113.13;5012051;28;20018;-74
2021/05/23 09:32:54;;;;;;;4.03;2.45;;;;;;;22.95;34.71;94108.47;4994261;28;20443;-74
2021/05/23 09:35:20;;;;;;;11.32;2.72;;;;;;;22.96;34.67;94103.81;4994101;28;20037;-74
2021/05/23 09:38:06;;;;;;;5.97;3.10;;;;;;;23.05;35.80;94106.97;5011858;28;20512;-74
2021/05/23 09:40:33;;;;;;;7.70;2.70;;;;;;;23.16;35.73;94112.41;5011628;28;20030;-74
2021/05/23 09:43:00;;;;;;;4.88;2.75;;;;;;;23.27;35.19;94107.75;5011685;28;20028;-74
2021/05/23 09:45:51;;;;;;;5.05;2.47;;;;;;;23.28;33.78;94098.44;5006501;28;20026;-74
2021/05/23 09:48:22;;;;;;;4.75;2.50;;;;;;;23.36;34.10;94105.41;5010862;28;20029;-74
2021/05/23 09:50:50;;;;;;;4.90;2.30;;;;;;;23.35;32.54;94093.00;5011106;28;20034;-74
2021/05/23 09:53:27;;;;;;;5.95;2.50;;;;;;;23.36;33.48;94094.53;5010857;28;20349;-75
2021/05/23 09:56:05;;;;;;;4.65;2.42;;;;;;;23.39;32.79;94093.00;5011082;28;20481;-75
2021/05/23 09:58:43;;;;;;;5.28;2.10;;;;;;;23.40;32.65;94079.00;5010803;28;20038;-75
2021/05/23 10:01:28;;;;;;;12.88;2.63;;;;;;;23.53;34.47;94081.31;5004841;28;20041;-74
2021/05/23 10:03:56;;;;;;;4.82;1.98;;;;;;;23.62;33.35;94085.19;4993390;28;20025;-75
2021/05/23 10:06:29;;;;;;;5.20;1.95;;;;;;;23.75;33.18;94082.88;4994886;28;20149;-75
2021/05/23 10:08:56;;;;;;;4.22;2.40;;;;;;;23.89;33.48;94076.63;4993343;28;20034;-75
2021/05/23 10:11:27;;;;;;;7.13;2.53;;;;;;;24.01;33.09;94067.25;5011112;28;20030;-75
2021/05/23 10:13:53;;;;;;;5.72;2.25;;;;;;;24.16;32.67;94066.06;5008689;28;20482;-75
2021/05/23 10:16:18;;;;;;;7.00;2.33;;;;;;;24.25;32.01;94064.84;5007789;28;20092;-75
2021/05/23 10:18:45;;;;;;;6.82;2.85;;;;;;;24.32;32.25;94060.16;4992973;28;20045;-75
2021/05/23 10:21:12;;;;;;;5.07;2.40;;;;;;;24.31;32.86;94058.59;4993231;28;20029;-75
2021/05/23 10:23:52;;;;;;;5.30;2.25;;;;;;;24.43;35.26;94060.09;4992847;28;20030;-75
2021/05/23 10:26:21;;;;;;;4.95;2.83;;;;;;;24.55;34.89;94061.63;5008263;28;20029;-75
2021/05/23 10:28:50;;;;;;;4.60;2.25;;;;;;;24.61;33.23;94051.88;4993029;28;20072;-75
2021/05/23 10:31:27;;;;;;;6.05;2.20;;;;;;;24.72;34.27;94046.34;4995623;28;20029;-75
2021/05/23 10:33:53;;;;;;;4.05;1.80;;;;;;;24.83;33.32;94047.84;5010527;28;20096;-75
2021/05/23 10:36:39;;;;;;;4.82;2.45;;;;;;;24.93;32.89;94042.69;5010226;28;20025;-75
2021/05/23 10:39:08;;;;;;;5.82;2.20;;;;;;;24.97;33.38;94038.00;5010267;28;20068;-75
2021/05/23 10:41:34;;;;;;;7.75;2.58;;;;;;;25.04;31.85;94040.69;4992940;28;20032;-75
2021/05/23 10:44:03;;;;;;;4.47;2.45;;;;;;;25.12;32.02;94041.41;5010503;28;20486;-75
2021/05/23 10:46:30;;;;;;;5.57;2.30;;;;;;;25.20;32.48;94035.50;4992633;28;20379;-76
2021/05/23 10:48:58;;;;;;;6.28;2.20;;;;;;;25.26;33.10;94026.88;4992569;28;20029;-75
2021/05/23 10:51:24;;;;;;;4.35;2.17;;;;;;;25.36;34.44;94037.72;4992546;28;20092;-74
2021/05/23 10:53:51;;;;;;;3.63;2.05;;;;;;;25.42;34.11;94032.59;5009863;28;20026;-74
2021/05/23 10:56:31;;;;;;;6.32;2.53;;;;;;;25.52;31.43;94033.69;5009984;28;20386;-74
2021/05/23 10:59:03;;;;;;;5.18;2.00;;;;;;;25.61;33.78;94028.53;5011027;28;20030;-74
2021/05/23 11:01:54;;;;;;;6.80;2.47;;;;;;;25.62;31.70;94028.13;4992408;28;20022;-75
2021/05/23 11:04:24;;;;;;;5.68;2.75;;;;;;;25.67;33.37;94029.63;5009918;28;20500;-75
2021/05/23 11:06:49;;;;;;;8.75;2.67;;;;;;;25.78;34.00;94026.78;4992259;28;20437;-75
2021/05/23 11:09:17;;;;;;;5.00;2.35;;;;;;;25.92;35.98;94023.16;4992121;28;20033;-74
2021/05/23 11:11:44;;;;;;;3.78;2.17;;;;;;;26.05;34.09;94015.97;4990041;28;20030;-75
2021/05/23 11:14:24;;;;;;;11.65;2.58;;;;;;;26.15;35.77;94020.53;5009543;28;20061;-74
2021/05/23 11:16:53;;;;;;;5.80;2.10;;;;;;;26.27;34.39;94013.75;4995633;28;20475;-74
2021/05/23 11:19:21;;;;;;;5.43;2.13;;;;;;;26.36;33.53;94013.28;5000235;28;20038;-74
2021/05/23 11:21:48;;;;;;;6.68;2.42;;;;;;;26.38;30.51;94005.44;5010680;28;20033;-75
2021/05/23 11:24:15;;;;;;;4.80;2.17;;;;;;;26.53;31.67;93998.56;4992025;28;20037;-75
2021/05/23 11:26:41;;;;;;;2.85;1.70;;;;;;;26.65;29.69;94002.75;4992230;28;20030;-75
2021/05/23 11:29:07;;;;;;;7.43;2.10;;;;;;;26.75;32.81;94001.03;4992227;28;20343;-82
2021/05/23 11:31:38;;;;;;;5.00;2.90;;;;;;;26.85;29.84;93993.84;4992399;28;20068;-72